Flight Track Log - Related Links

Times and Time Zones

All times are in EDT time to prevent confusion due to time zone crossing. See the N589H flight status page for this flight to view local times or setup timezone preferences in your user account.

Time Position Orientation Groundspeed Altitude Reporting Facility
EDT Latitude Longitude Course Direction KTS MPH feet Rate Location/Type
Mon 08:49:05 PM 26.0747 -80.1414 57° Northeast 167 192 500  Level Miami Center
Mon 08:50:00 PM 26.0986 -80.1003 57° Northeast 178 205 2,300 2,018 Climbing Miami Center
Mon 08:50:55 PM 26.1344 -80.0897 15° North 184 212 4,200 1,276 Climbing Miami Center
Mon 08:52:07 PM 26.1986 -80.1192 338° Northwest 207 238 5,000 909 Climbing Miami Center
Mon 08:53:07 PM 26.2328 -80.1803 302° West 223 257 6,200 1,500 Climbing Miami Center
Mon 08:54:07 PM 26.2519 -80.2572 286° West 223 257 8,000 900 Climbing Miami Center
Mon 08:55:07 PM 26.2689 -80.3319 284° West 242 278 8,000 1,000 Level Miami Center
Mon 08:56:07 PM 26.2881 -80.4044 286° West 258 297 10,000 1,500 Climbing Miami Center
Mon 08:57:07 PM 26.3094 -80.4722 289° West 239 275 11,000 450 Climbing Miami Center
Mon 08:58:07 PM 26.3303 -80.5539 286° West 264 304 10,900 900 Descending Miami Center
Mon 08:59:07 PM 26.3514 -80.6264 288° West 263 303 12,800 2,050 Climbing Miami Center
Mon 09:00:07 PM 26.4025 -80.6697 323° Northwest 231 266 15,000 1,100 Climbing Miami Center
Mon 09:01:07 PM 26.4531 -80.7294 313° West 246 283 15,000 -50 Level Miami Center
Mon 09:02:07 PM 26.5014 -80.7961 309° West 266 306 14,900 -50 Descending Miami Center
Mon 09:03:07 PM 26.5519 -80.8558 313° West 271 312 14,900 600 Level Miami Center
Mon 09:04:07 PM 26.5922 -80.9106 309° West 263 303 16,100 1,000 Climbing Miami Center
Mon 09:05:07 PM 26.6386 -80.9703 311° West 263 303 16,900 450 Climbing Miami Center
Mon 09:06:07 PM 26.6928 -81.0442 309° West 270 311 17,000 100 Climbing Miami Center
Mon 09:07:07 PM 26.7453 -81.1111 311° West 270 311 17,100 50 Climbing Miami Center
Mon 09:08:07 PM 26.7975 -81.1828 309° West 289 333 17,100  Level Miami Center
Mon 09:09:07 PM 26.8517 -81.2522 311° West 289 333 17,100  Level Miami Center
Mon 09:10:07 PM 26.9019 -81.3194 310° West 289 333 17,100  Level Miami Center
Mon 09:11:07 PM 26.9478 -81.3842 308° West 289 333 17,100  Level Miami Center
Mon 09:12:07 PM 27.0019 -81.4561 310° West 294 338 17,100 -50 Level Miami Center
Mon 09:13:07 PM 27.0619 -81.5353 310° West 299 344 17,000 -50 Descending Miami Center
Mon 09:14:07 PM 27.1139 -81.6075 309° West 299 344 17,000 50 Level Miami Center
Mon 09:15:07 PM 27.1658 -81.6797 309° West 299 344 17,100  Climbing Miami Center
Mon 09:16:07 PM 27.2178 -81.7472 311° West 299 344 17,000 -50 Descending Miami Center
Mon 09:17:07 PM 27.2719 -81.8172 311° West 299 344 17,000 -350 Level Miami Center
Mon 09:18:07 PM 27.3217 -81.8847 310° West 293 337 16,300 -850 Descending Miami Center
Mon 09:19:07 PM 27.3781 -81.9408 319° Northwest 281 323 15,300 -900 Descending Miami Center
Mon 09:20:07 PM 27.4539 -81.9864 332° Northwest 287 330 14,500 -850 Descending Miami Center
Mon 09:21:07 PM 27.5231 -82.0317 330° Northwest 292 336 13,600 -900 Descending Miami Center
Mon 09:22:07 PM 27.5925 -82.0769 330° Northwest 287 330 12,700 -1,250 Descending Miami Center
Mon 09:23:07 PM 27.6536 -82.1172 330° Northwest 287 330 11,100 -1,450 Descending Miami Center
Mon 09:24:07 PM 27.7144 -82.1597 328° Northwest 275 316 9,800 -1,279 Descending Miami Center
Mon 09:25:09 PM 27.7833 -82.2167 324° Northwest 251 289 8,500 -1,230 Descending Tampa TRACON
Mon 09:26:09 PM 27.8500 -82.2500 336° Northwest 247 284 7,300 -1,158 Descending Tampa TRACON
Mon 09:27:03 PM 27.9000 -82.3000 319° Northwest 256 295 6,300 -1,158 Descending Tampa TRACON
Mon 09:28:03 PM 27.9500 -82.3500 319° Northwest 269 310 5,100 -1,150 Descending Tampa TRACON
Mon 09:29:03 PM 27.9667 -82.4167 286° West 262 302 4,000 -550 Descending Tampa TRACON
Mon 09:30:03 PM 27.9833 -82.5000 283° West 253 291 4,000 -48 Level Tampa TRACON
Mon 09:31:09 PM 27.9833 -82.5833 270° West 226 260 3,900 -48 Descending Tampa TRACON
Mon 09:32:09 PM 27.9833 -82.6500 270° West 228 262 3,900  Level Tampa TRACON
Mon 09:32:58 PM 27.9833 -82.7167 270° West 224 258 3,900  Level Tampa TRACON
Mon 09:34:04 PM 28.0000 -82.7833 286° West 242 278 3,900  Level Tampa TRACON
Mon 09:34:58 PM 28.0500 -82.8000 344° North 219 252 3,900 -450 Level Tampa TRACON
Mon 09:36:04 PM 28.1167 -82.8000 360° North 218 251 3,000 -500 Descending Tampa TRACON
Mon 09:36:58 PM 28.1167 -82.7667 90° East 176 203 2,900 -95 Descending Tampa TRACON
Mon 09:38:10 PM 28.0667 -82.7167 139° Southeast 198 228 2,800 -409 Descending Tampa TRACON
Mon 09:39:10 PM 28.0167 -82.7000 164° South 188 216 2,000 -850 Descending Tampa TRACON
Mon 09:40:10 PM 27.9667 -82.7000 180° South 135 155 1,100 -850 Descending Tampa TRACON
Mon 09:41:10 PM 27.9333 -82.7000 180° South 114 131 300 -800 Descending Tampa TRACON

Login

Don't have an account? Register now (free) for customized features, flight alerts, and more!